KMHV/MHV METAR and TAF weather

Enter ICAO airport designator
Station Type Date Time Source
KMHV METAR 2019/12/07 04:40 UTC NOAA

KMHV 070440Z AUTO 00000KT 7SM FEW011 SCT027 BKN049 09/09 A3019 RMK A01


Station Type Date Time Source
KMHV Decoded METAR 2019/12/07 04:40 UTC NOAA

Mojave, CA, United States (KMHV) 35-04N 118-09W
Dec 06, 2019 - 11:40 PM EST / 2019.12.07 0440 UTC
Wind: Calm:0
Visibility: 7 mile(s):0
Sky conditions: mostly cloudy
Temperature: 48 F (9 C)
Dew Point: 48 F (9 C)
Relative Humidity: 100%
Pressure (altimeter): 30.19 in. Hg (1022 hPa)
ob: KMHV 070440Z AUTO 00000KT 7SM FEW011 SCT027 BKN049 09/09 A3019 RMK A01
cycle: 4

Station Type Date Time Source
KMHV TAF UTC NOAA

Error!

Example: see airport list